sensor_id;sensor_type;location;lat;lon;timestamp;P1;durP1;ratioP1;P2;durP2;ratioP2
85204;SDS011;75582;47.444;21.396;2024-01-30T00:01:07;55.33;;;27.83;;
85204;SDS011;75582;47.444;21.396;2024-01-30T00:02:33;58.70;;;29.40;;
85204;SDS011;75582;47.444;21.396;2024-01-30T00:03:59;64.10;;;30.23;;
85204;SDS011;75582;47.444;21.396;2024-01-30T00:05:25;58.72;;;28.35;;
85204;SDS011;75582;47.444;21.396;2024-01-30T00:06:51;59.67;;;29.50;;
85204;SDS011;75582;47.444;21.396;2024-01-30T00:08:18;54.90;;;28.40;;
85204;SDS011;75582;47.444;21.396;2024-01-30T00:09:46;53.83;;;27.37;;
85204;SDS011;75582;47.444;21.396;2024-01-30T00:11:13;49.38;;;26.88;;
85204;SDS011;75582;47.444;21.396;2024-01-30T00:12:39;55.78;;;27.55;;
85204;SDS011;75582;47.444;21.396;2024-01-30T00:14:05;52.65;;;27.48;;
85204;SDS011;75582;47.444;21.396;2024-01-30T00:15:30;59.60;;;27.42;;
85204;SDS011;75582;47.444;21.396;2024-01-30T00:16:57;56.92;;;27.63;;
85204;SDS011;75582;47.444;21.396;2024-01-30T00:18:23;61.70;;;29.02;;
85204;SDS011;75582;47.444;21.396;2024-01-30T00:19:49;68.75;;;31.83;;
85204;SDS011;75582;47.444;21.396;2024-01-30T00:21:15;63.95;;;30.60;;
85204;SDS011;75582;47.444;21.396;2024-01-30T00:22:41;63.10;;;31.33;;
85204;SDS011;75582;47.444;21.396;2024-01-30T00:24:07;63.47;;;29.63;;
85204;SDS011;75582;47.444;21.396;2024-01-30T00:25:33;60.03;;;29.25;;
85204;SDS011;75582;47.444;21.396;2024-01-30T00:27:06;57.92;;;27.55;;
85204;SDS011;75582;47.444;21.396;2024-01-30T00:28:32;54.05;;;26.33;;
85204;SDS011;75582;47.444;21.396;2024-01-30T00:29:58;54.75;;;26.52;;
85204;SDS011;75582;47.444;21.396;2024-01-30T00:31:24;60.00;;;27.67;;
85204;SDS011;75582;47.444;21.396;2024-01-30T00:32:50;53.88;;;26.55;;
85204;SDS011;75582;47.444;21.396;2024-01-30T00:34:16;50.10;;;26.25;;
85204;SDS011;75582;47.444;21.396;2024-01-30T00:35:42;57.08;;;26.08;;
85204;SDS011;75582;47.444;21.396;2024-01-30T00:37:08;54.73;;;24.60;;
85204;SDS011;75582;47.444;21.396;2024-01-30T00:38:34;48.00;;;25.83;;
85204;SDS011;75582;47.444;21.396;2024-01-30T00:39:59;50.85;;;24.70;;
85204;SDS011;75582;47.444;21.396;2024-01-30T00:41:26;48.80;;;24.60;;
85204;SDS011;75582;47.444;21.396;2024-01-30T00:42:52;47.78;;;23.60;;
85204;SDS011;75582;47.444;21.396;2024-01-30T00:44:18;48.17;;;25.50;;
85204;SDS011;75582;47.444;21.396;2024-01-30T00:45:44;52.75;;;24.98;;
85204;SDS011;75582;47.444;21.396;2024-01-30T00:47:10;50.60;;;24.80;;
85204;SDS011;75582;47.444;21.396;2024-01-30T00:48:36;48.70;;;24.88;;
85204;SDS011;75582;47.444;21.396;2024-01-30T00:50:02;54.50;;;25.50;;
85204;SDS011;75582;47.444;21.396;2024-01-30T00:51:28;46.60;;;25.23;;
85204;SDS011;75582;47.444;21.396;2024-01-30T00:52:55;56.00;;;25.00;;
85204;SDS011;75582;47.444;21.396;2024-01-30T00:54:21;50.33;;;25.17;;
85204;SDS011;75582;47.444;21.396;2024-01-30T00:55:47;53.03;;;25.30;;
85204;SDS011;75582;47.444;21.396;2024-01-30T00:57:13;48.58;;;24.25;;
85204;SDS011;75582;47.444;21.396;2024-01-30T00:58:39;45.33;;;22.33;;
85204;SDS011;75582;47.444;21.396;2024-01-30T01:00:06;47.13;;;24.10;;
85204;SDS011;75582;47.444;21.396;2024-01-30T01:01:34;48.90;;;23.45;;
85204;SDS011;75582;47.444;21.396;2024-01-30T01:03:00;45.03;;;23.50;;
85204;SDS011;75582;47.444;21.396;2024-01-30T01:04:26;48.70;;;23.48;;
85204;SDS011;75582;47.444;21.396;2024-01-30T01:05:52;40.00;;;20.40;;
85204;SDS011;75582;47.444;21.396;2024-01-30T01:07:18;45.43;;;21.60;;
85204;SDS011;75582;47.444;21.396;2024-01-30T01:08:44;44.80;;;22.08;;
85204;SDS011;75582;47.444;21.396;2024-01-30T01:10:10;46.30;;;21.27;;
85204;SDS011;75582;47.444;21.396;2024-01-30T01:11:37;37.97;;;21.10;;
85204;SDS011;75582;47.444;21.396;2024-01-30T01:13:03;43.78;;;20.73;;
85204;SDS011;75582;47.444;21.396;2024-01-30T01:14:29;44.75;;;21.83;;
85204;SDS011;75582;47.444;21.396;2024-01-30T01:15:55;41.15;;;23.08;;
85204;SDS011;75582;47.444;21.396;2024-01-30T01:17:21;43.75;;;21.77;;
85204;SDS011;75582;47.444;21.396;2024-01-30T01:18:47;48.22;;;23.10;;
85204;SDS011;75582;47.444;21.396;2024-01-30T01:20:13;52.73;;;21.47;;
85204;SDS011;75582;47.444;21.396;2024-01-30T01:21:39;41.47;;;20.63;;
85204;SDS011;75582;47.444;21.396;2024-01-30T01:23:05;45.00;;;22.15;;
85204;SDS011;75582;47.444;21.396;2024-01-30T01:24:31;39.45;;;20.83;;
85204;SDS011;75582;47.444;21.396;2024-01-30T01:26:04;43.08;;;22.10;;
85204;SDS011;75582;47.444;21.396;2024-01-30T01:27:39;43.78;;;21.98;;
85204;SDS011;75582;47.444;21.396;2024-01-30T01:29:06;41.10;;;20.55;;
85204;SDS011;75582;47.444;21.396;2024-01-30T01:30:37;42.78;;;21.70;;
85204;SDS011;75582;47.444;21.396;2024-01-30T01:32:03;47.25;;;21.85;;
85204;SDS011;75582;47.444;21.396;2024-01-30T01:33:29;40.67;;;20.45;;
85204;SDS011;75582;47.444;21.396;2024-01-30T01:34:55;46.23;;;20.57;;
85204;SDS011;75582;47.444;21.396;2024-01-30T01:36:21;38.80;;;20.83;;
85204;SDS011;75582;47.444;21.396;2024-01-30T01:37:46;47.03;;;22.27;;
85204;SDS011;75582;47.444;21.396;2024-01-30T01:39:13;41.35;;;21.15;;
85204;SDS011;75582;47.444;21.396;2024-01-30T01:40:39;42.75;;;20.35;;
85204;SDS011;75582;47.444;21.396;2024-01-30T01:42:05;42.70;;;21.00;;
85204;SDS011;75582;47.444;21.396;2024-01-30T01:43:31;39.08;;;19.50;;
85204;SDS011;75582;47.444;21.396;2024-01-30T01:44:57;38.33;;;18.77;;
85204;SDS011;75582;47.444;21.396;2024-01-30T01:46:23;37.20;;;19.67;;
85204;SDS011;75582;47.444;21.396;2024-01-30T01:47:50;39.08;;;20.50;;
85204;SDS011;75582;47.444;21.396;2024-01-30T01:49:17;42.30;;;19.90;;
85204;SDS011;75582;47.444;21.396;2024-01-30T01:50:44;35.25;;;18.02;;
85204;SDS011;75582;47.444;21.396;2024-01-30T01:52:10;36.55;;;18.98;;
85204;SDS011;75582;47.444;21.396;2024-01-30T01:53:36;37.15;;;18.90;;
85204;SDS011;75582;47.444;21.396;2024-01-30T01:55:02;41.28;;;18.98;;
85204;SDS011;75582;47.444;21.396;2024-01-30T01:56:27;41.97;;;18.25;;
85204;SDS011;75582;47.444;21.396;2024-01-30T01:57:55;38.08;;;18.08;;
85204;SDS011;75582;47.444;21.396;2024-01-30T01:59:20;36.88;;;17.17;;
85204;SDS011;75582;47.444;21.396;2024-01-30T02:00:47;36.20;;;18.27;;
85204;SDS011;75582;47.444;21.396;2024-01-30T02:02:14;43.17;;;20.17;;
85204;SDS011;75582;47.444;21.396;2024-01-30T02:03:40;36.70;;;18.37;;
85204;SDS011;75582;47.444;21.396;2024-01-30T02:05:07;36.67;;;19.53;;
85204;SDS011;75582;47.444;21.396;2024-01-30T02:06:34;37.08;;;19.20;;
85204;SDS011;75582;47.444;21.396;2024-01-30T02:08:00;40.10;;;18.95;;
85204;SDS011;75582;47.444;21.396;2024-01-30T02:09:26;35.95;;;18.08;;
85204;SDS011;75582;47.444;21.396;2024-01-30T02:10:52;36.28;;;17.48;;
85204;SDS011;75582;47.444;21.396;2024-01-30T02:12:18;38.90;;;18.40;;
85204;SDS011;75582;47.444;21.396;2024-01-30T02:13:44;41.17;;;17.50;;
85204;SDS011;75582;47.444;21.396;2024-01-30T02:15:13;35.53;;;17.25;;
85204;SDS011;75582;47.444;21.396;2024-01-30T02:16:39;34.65;;;16.95;;
85204;SDS011;75582;47.444;21.396;2024-01-30T02:18:05;34.30;;;17.73;;
85204;SDS011;75582;47.444;21.396;2024-01-30T02:19:31;34.67;;;16.90;;
85204;SDS011;75582;47.444;21.396;2024-01-30T02:20:58;34.83;;;17.73;;
85204;SDS011;75582;47.444;21.396;2024-01-30T02:22:26;36.97;;;18.30;;
85204;SDS011;75582;47.444;21.396;2024-01-30T02:23:52;38.53;;;18.08;;
85204;SDS011;75582;47.444;21.396;2024-01-30T02:25:18;41.25;;;19.90;;
85204;SDS011;75582;47.444;21.396;2024-01-30T02:26:57;35.45;;;16.65;;
85204;SDS011;75582;47.444;21.396;2024-01-30T02:28:23;34.97;;;17.98;;
85204;SDS011;75582;47.444;21.396;2024-01-30T02:29:49;37.22;;;19.08;;
85204;SDS011;75582;47.444;21.396;2024-01-30T02:31:15;37.72;;;16.77;;
85204;SDS011;75582;47.444;21.396;2024-01-30T02:32:41;41.07;;;19.00;;
85204;SDS011;75582;47.444;21.396;2024-01-30T02:34:07;41.00;;;18.03;;
85204;SDS011;75582;47.444;21.396;2024-01-30T02:35:33;40.83;;;18.77;;
85204;SDS011;75582;47.444;21.396;2024-01-30T02:36:59;35.33;;;17.17;;
85204;SDS011;75582;47.444;21.396;2024-01-30T02:38:24;41.60;;;21.52;;
85204;SDS011;75582;47.444;21.396;2024-01-30T02:39:52;45.67;;;20.58;;
85204;SDS011;75582;47.444;21.396;2024-01-30T02:41:18;46.15;;;21.73;;
85204;SDS011;75582;47.444;21.396;2024-01-30T02:42:44;43.28;;;20.30;;
85204;SDS011;75582;47.444;21.396;2024-01-30T02:44:10;45.55;;;20.85;;
85204;SDS011;75582;47.444;21.396;2024-01-30T02:45:36;51.95;;;21.50;;
85204;SDS011;75582;47.444;21.396;2024-01-30T02:47:02;46.67;;;20.47;;
85204;SDS011;75582;47.444;21.396;2024-01-30T02:48:28;46.97;;;21.40;;
85204;SDS011;75582;47.444;21.396;2024-01-30T02:49:54;39.42;;;19.75;;
85204;SDS011;75582;47.444;21.396;2024-01-30T02:51:20;49.85;;;21.33;;
85204;SDS011;75582;47.444;21.396;2024-01-30T02:52:45;45.60;;;20.85;;
85204;SDS011;75582;47.444;21.396;2024-01-30T02:54:12;44.83;;;21.75;;
85204;SDS011;75582;47.444;21.396;2024-01-30T02:55:38;43.85;;;21.13;;
85204;SDS011;75582;47.444;21.396;2024-01-30T02:57:04;44.95;;;20.80;;
85204;SDS011;75582;47.444;21.396;2024-01-30T02:58:30;44.35;;;21.73;;
85204;SDS011;75582;47.444;21.396;2024-01-30T02:59:56;40.97;;;19.95;;
85204;SDS011;75582;47.444;21.396;2024-01-30T03:01:22;45.97;;;21.17;;
85204;SDS011;75582;47.444;21.396;2024-01-30T03:02:50;47.00;;;21.75;;
85204;SDS011;75582;47.444;21.396;2024-01-30T03:04:16;48.22;;;22.13;;
85204;SDS011;75582;47.444;21.396;2024-01-30T03:05:42;40.50;;;21.30;;
85204;SDS011;75582;47.444;21.396;2024-01-30T03:07:08;39.63;;;19.35;;
85204;SDS011;75582;47.444;21.396;2024-01-30T03:08:34;36.25;;;19.17;;
85204;SDS011;75582;47.444;21.396;2024-01-30T03:10:01;40.55;;;20.80;;
85204;SDS011;75582;47.444;21.396;2024-01-30T03:11:26;44.00;;;21.52;;
85204;SDS011;75582;47.444;21.396;2024-01-30T03:12:53;40.88;;;20.23;;
85204;SDS011;75582;47.444;21.396;2024-01-30T03:14:19;45.10;;;21.17;;
85204;SDS011;75582;47.444;21.396;2024-01-30T03:15:45;47.30;;;22.23;;
85204;SDS011;75582;47.444;21.396;2024-01-30T03:17:11;44.97;;;21.50;;
85204;SDS011;75582;47.444;21.396;2024-01-30T03:18:37;43.53;;;21.30;;
85204;SDS011;75582;47.444;21.396;2024-01-30T03:20:03;46.97;;;22.45;;
85204;SDS011;75582;47.444;21.396;2024-01-30T03:21:31;45.08;;;23.95;;
85204;SDS011;75582;47.444;21.396;2024-01-30T03:22:57;47.90;;;23.52;;
85204;SDS011;75582;47.444;21.396;2024-01-30T03:24:25;49.35;;;23.50;;
85204;SDS011;75582;47.444;21.396;2024-01-30T03:25:51;42.92;;;20.92;;
85204;SDS011;75582;47.444;21.396;2024-01-30T03:27:24;44.67;;;22.70;;
85204;SDS011;75582;47.444;21.396;2024-01-30T03:28:50;47.53;;;23.60;;
85204;SDS011;75582;47.444;21.396;2024-01-30T03:30:16;44.53;;;22.70;;
85204;SDS011;75582;47.444;21.396;2024-01-30T03:31:42;49.10;;;22.73;;
85204;SDS011;75582;47.444;21.396;2024-01-30T03:33:08;49.90;;;24.50;;
85204;SDS011;75582;47.444;21.396;2024-01-30T03:34:34;53.75;;;25.25;;
85204;SDS011;75582;47.444;21.396;2024-01-30T03:36:02;52.88;;;23.80;;
85204;SDS011;75582;47.444;21.396;2024-01-30T03:37:30;45.50;;;23.75;;
85204;SDS011;75582;47.444;21.396;2024-01-30T03:38:56;53.25;;;24.80;;
85204;SDS011;75582;47.444;21.396;2024-01-30T03:40:22;57.45;;;26.55;;
85204;SDS011;75582;47.444;21.396;2024-01-30T03:41:55;53.50;;;25.90;;
85204;SDS011;75582;47.444;21.396;2024-01-30T03:43:22;55.38;;;26.02;;
85204;SDS011;75582;47.444;21.396;2024-01-30T03:44:48;52.77;;;25.37;;
85204;SDS011;75582;47.444;21.396;2024-01-30T03:46:17;58.40;;;26.43;;
85204;SDS011;75582;47.444;21.396;2024-01-30T03:47:43;53.33;;;26.65;;
85204;SDS011;75582;47.444;21.396;2024-01-30T03:49:09;56.67;;;29.13;;
85204;SDS011;75582;47.444;21.396;2024-01-30T03:50:35;60.90;;;26.80;;
85204;SDS011;75582;47.444;21.396;2024-01-30T03:52:01;59.60;;;28.20;;
85204;SDS011;75582;47.444;21.396;2024-01-30T03:53:27;59.85;;;27.33;;
85204;SDS011;75582;47.444;21.396;2024-01-30T03:54:52;58.30;;;27.95;;
85204;SDS011;75582;47.444;21.396;2024-01-30T03:56:19;57.42;;;26.77;;
85204;SDS011;75582;47.444;21.396;2024-01-30T03:57:44;55.92;;;28.02;;
85204;SDS011;75582;47.444;21.396;2024-01-30T03:59:11;59.80;;;28.10;;
85204;SDS011;75582;47.444;21.396;2024-01-30T04:00:37;59.27;;;27.27;;
85204;SDS011;75582;47.444;21.396;2024-01-30T04:02:03;54.25;;;27.77;;
85204;SDS011;75582;47.444;21.396;2024-01-30T04:03:30;53.97;;;27.50;;
85204;SDS011;75582;47.444;21.396;2024-01-30T04:04:56;52.03;;;26.15;;
85204;SDS011;75582;47.444;21.396;2024-01-30T04:06:22;53.25;;;26.00;;
85204;SDS011;75582;47.444;21.396;2024-01-30T04:07:48;52.67;;;26.42;;
85204;SDS011;75582;47.444;21.396;2024-01-30T04:09:14;50.95;;;25.58;;
85204;SDS011;75582;47.444;21.396;2024-01-30T04:10:40;59.40;;;27.33;;
85204;SDS011;75582;47.444;21.396;2024-01-30T04:12:06;54.38;;;26.10;;
85204;SDS011;75582;47.444;21.396;2024-01-30T04:13:32;50.37;;;25.17;;
85204;SDS011;75582;47.444;21.396;2024-01-30T04:14:58;64.15;;;26.50;;
85204;SDS011;75582;47.444;21.396;2024-01-30T04:16:24;64.30;;;26.70;;
85204;SDS011;75582;47.444;21.396;2024-01-30T04:17:50;62.97;;;28.02;;
85204;SDS011;75582;47.444;21.396;2024-01-30T04:19:16;74.10;;;28.20;;
85204;SDS011;75582;47.444;21.396;2024-01-30T04:20:42;65.90;;;28.95;;
85204;SDS011;75582;47.444;21.396;2024-01-30T04:22:08;63.65;;;30.17;;
85204;SDS011;75582;47.444;21.396;2024-01-30T04:23:33;73.70;;;30.35;;
85204;SDS011;75582;47.444;21.396;2024-01-30T04:24:59;68.47;;;30.05;;
85204;SDS011;75582;47.444;21.396;2024-01-30T04:26:25;59.40;;;28.60;;
85204;SDS011;75582;47.444;21.396;2024-01-30T04:27:51;71.00;;;31.57;;
85204;SDS011;75582;47.444;21.396;2024-01-30T04:29:17;67.77;;;30.47;;
85204;SDS011;75582;47.444;21.396;2024-01-30T04:30:43;65.95;;;27.80;;
85204;SDS011;75582;47.444;21.396;2024-01-30T04:32:09;69.50;;;29.33;;
85204;SDS011;75582;47.444;21.396;2024-01-30T04:33:35;65.53;;;28.92;;
85204;SDS011;75582;47.444;21.396;2024-01-30T04:35:01;71.10;;;28.65;;
85204;SDS011;75582;47.444;21.396;2024-01-30T04:36:27;68.15;;;27.48;;
85204;SDS011;75582;47.444;21.396;2024-01-30T04:37:53;72.82;;;27.95;;
85204;SDS011;75582;47.444;21.396;2024-01-30T04:39:19;67.07;;;29.08;;
85204;SDS011;75582;47.444;21.396;2024-01-30T04:40:45;90.20;;;30.05;;
85204;SDS011;75582;47.444;21.396;2024-01-30T04:42:11;69.13;;;26.83;;
85204;SDS011;75582;47.444;21.396;2024-01-30T04:43:37;76.05;;;27.60;;
85204;SDS011;75582;47.444;21.396;2024-01-30T04:45:03;86.28;;;29.27;;
85204;SDS011;75582;47.444;21.396;2024-01-30T04:46:28;100.55;;;30.17;;
85204;SDS011;75582;47.444;21.396;2024-01-30T04:47:55;76.13;;;28.67;;
85204;SDS011;75582;47.444;21.396;2024-01-30T04:49:21;99.82;;;31.08;;
85204;SDS011;75582;47.444;21.396;2024-01-30T04:50:47;91.13;;;31.50;;
85204;SDS011;75582;47.444;21.396;2024-01-30T04:52:13;114.07;;;32.33;;
85204;SDS011;75582;47.444;21.396;2024-01-30T04:53:39;114.30;;;33.33;;
85204;SDS011;75582;47.444;21.396;2024-01-30T04:55:05;132.27;;;31.50;;
85204;SDS011;75582;47.444;21.396;2024-01-30T04:56:32;124.13;;;31.63;;
85204;SDS011;75582;47.444;21.396;2024-01-30T04:57:58;101.22;;;31.63;;
85204;SDS011;75582;47.444;21.396;2024-01-30T04:59:26;117.57;;;31.02;;
85204;SDS011;75582;47.444;21.396;2024-01-30T05:00:53;129.77;;;29.63;;
85204;SDS011;75582;47.444;21.396;2024-01-30T05:02:19;141.57;;;31.67;;
85204;SDS011;75582;47.444;21.396;2024-01-30T05:03:45;100.72;;;28.40;;
85204;SDS011;75582;47.444;21.396;2024-01-30T05:05:11;158.57;;;30.90;;
85204;SDS011;75582;47.444;21.396;2024-01-30T05:06:37;134.68;;;29.30;;
85204;SDS011;75582;47.444;21.396;2024-01-30T05:08:03;109.45;;;29.40;;
85204;SDS011;75582;47.444;21.396;2024-01-30T05:09:29;93.63;;;29.25;;
85204;SDS011;75582;47.444;21.396;2024-01-30T05:10:55;124.67;;;30.70;;
85204;SDS011;75582;47.444;21.396;2024-01-30T05:12:21;115.28;;;30.58;;
85204;SDS011;75582;47.444;21.396;2024-01-30T05:13:47;101.18;;;30.52;;
85204;SDS011;75582;47.444;21.396;2024-01-30T05:15:13;95.53;;;27.85;;
85204;SDS011;75582;47.444;21.396;2024-01-30T05:16:39;113.22;;;31.58;;
85204;SDS011;75582;47.444;21.396;2024-01-30T05:18:04;101.55;;;30.80;;
85204;SDS011;75582;47.444;21.396;2024-01-30T05:19:31;143.25;;;32.42;;
85204;SDS011;75582;47.444;21.396;2024-01-30T05:20:56;143.70;;;32.78;;
85204;SDS011;75582;47.444;21.396;2024-01-30T05:22:23;165.13;;;33.78;;
85204;SDS011;75582;47.444;21.396;2024-01-30T05:23:49;116.13;;;35.85;;
85204;SDS011;75582;47.444;21.396;2024-01-30T05:25:15;110.30;;;35.30;;
85204;SDS011;75582;47.444;21.396;2024-01-30T05:26:41;126.20;;;39.30;;
85204;SDS011;75582;47.444;21.396;2024-01-30T05:28:07;118.68;;;42.72;;
85204;SDS011;75582;47.444;21.396;2024-01-30T05:29:32;94.65;;;39.15;;
85204;SDS011;75582;47.444;21.396;2024-01-30T05:30:58;95.18;;;38.83;;
85204;SDS011;75582;47.444;21.396;2024-01-30T05:32:25;98.70;;;40.10;;
85204;SDS011;75582;47.444;21.396;2024-01-30T05:33:51;104.03;;;41.65;;
85204;SDS011;75582;47.444;21.396;2024-01-30T05:35:17;93.07;;;39.83;;
85204;SDS011;75582;47.444;21.396;2024-01-30T05:36:43;93.10;;;38.08;;
85204;SDS011;75582;47.444;21.396;2024-01-30T05:38:09;93.32;;;40.60;;
85204;SDS011;75582;47.444;21.396;2024-01-30T05:39:35;96.40;;;41.67;;
85204;SDS011;75582;47.444;21.396;2024-01-30T05:41:00;101.47;;;42.10;;
85204;SDS011;75582;47.444;21.396;2024-01-30T05:42:27;87.82;;;39.88;;
85204;SDS011;75582;47.444;21.396;2024-01-30T05:43:53;85.10;;;41.33;;
85204;SDS011;75582;47.444;21.396;2024-01-30T05:45:18;91.13;;;42.95;;
85204;SDS011;75582;47.444;21.396;2024-01-30T05:46:44;88.30;;;41.25;;
85204;SDS011;75582;47.444;21.396;2024-01-30T05:48:10;84.97;;;38.30;;
85204;SDS011;75582;47.444;21.396;2024-01-30T05:49:35;79.57;;;37.88;;
85204;SDS011;75582;47.444;21.396;2024-01-30T05:51:02;79.32;;;36.72;;
85204;SDS011;75582;47.444;21.396;2024-01-30T05:52:29;75.07;;;35.13;;
85204;SDS011;75582;47.444;21.396;2024-01-30T05:53:55;81.27;;;35.87;;
85204;SDS011;75582;47.444;21.396;2024-01-30T05:55:21;75.60;;;37.03;;
85204;SDS011;75582;47.444;21.396;2024-01-30T05:56:46;83.95;;;35.42;;
85204;SDS011;75582;47.444;21.396;2024-01-30T05:58:12;77.25;;;36.53;;
85204;SDS011;75582;47.444;21.396;2024-01-30T05:59:38;75.35;;;35.97;;
85204;SDS011;75582;47.444;21.396;2024-01-30T06:01:07;80.38;;;38.10;;
85204;SDS011;75582;47.444;21.396;2024-01-30T06:02:34;71.65;;;35.78;;
85204;SDS011;75582;47.444;21.396;2024-01-30T06:04:00;67.97;;;34.70;;
85204;SDS011;75582;47.444;21.396;2024-01-30T06:05:26;65.95;;;32.97;;
85204;SDS011;75582;47.444;21.396;2024-01-30T06:06:53;68.38;;;33.25;;
85204;SDS011;75582;47.444;21.396;2024-01-30T06:08:19;71.27;;;32.73;;
85204;SDS011;75582;47.444;21.396;2024-01-30T06:09:45;75.97;;;36.57;;
85204;SDS011;75582;47.444;21.396;2024-01-30T06:11:12;79.45;;;39.97;;
85204;SDS011;75582;47.444;21.396;2024-01-30T06:12:38;96.20;;;45.65;;
85204;SDS011;75582;47.444;21.396;2024-01-30T06:14:04;91.78;;;43.78;;
85204;SDS011;75582;47.444;21.396;2024-01-30T06:15:30;96.45;;;44.10;;
85204;SDS011;75582;47.444;21.396;2024-01-30T06:16:58;100.65;;;46.45;;
85204;SDS011;75582;47.444;21.396;2024-01-30T06:18:25;102.68;;;44.97;;
85204;SDS011;75582;47.444;21.396;2024-01-30T06:19:52;93.03;;;43.70;;
85204;SDS011;75582;47.444;21.396;2024-01-30T06:21:18;91.00;;;41.80;;
85204;SDS011;75582;47.444;21.396;2024-01-30T06:25:14;81.00;;;38.30;;
85204;SDS011;75582;47.444;21.396;2024-01-30T06:26:40;83.70;;;38.00;;
85204;SDS011;75582;47.444;21.396;2024-01-30T06:28:07;76.75;;;35.78;;
85204;SDS011;75582;47.444;21.396;2024-01-30T06:29:33;78.60;;;37.65;;
85204;SDS011;75582;47.444;21.396;2024-01-30T06:31:00;75.70;;;35.60;;
85204;SDS011;75582;47.444;21.396;2024-01-30T06:32:27;66.80;;;33.40;;
85204;SDS011;75582;47.444;21.396;2024-01-30T06:33:54;72.03;;;35.60;;
85204;SDS011;75582;47.444;21.396;2024-01-30T06:35:21;68.75;;;32.95;;
85204;SDS011;75582;47.444;21.396;2024-01-30T06:36:48;69.68;;;35.70;;
85204;SDS011;75582;47.444;21.396;2024-01-30T06:38:13;69.77;;;35.23;;
85204;SDS011;75582;47.444;21.396;2024-01-30T06:39:41;74.10;;;35.50;;
85204;SDS011;75582;47.444;21.396;2024-01-30T06:41:07;72.90;;;34.75;;
85204;SDS011;75582;47.444;21.396;2024-01-30T06:42:33;72.30;;;34.63;;
85204;SDS011;75582;47.444;21.396;2024-01-30T06:43:59;70.97;;;35.97;;
85204;SDS011;75582;47.444;21.396;2024-01-30T06:45:27;69.13;;;33.90;;
85204;SDS011;75582;47.444;21.396;2024-01-30T06:46:53;62.65;;;33.38;;
85204;SDS011;75582;47.444;21.396;2024-01-30T06:48:19;71.20;;;34.45;;
85204;SDS011;75582;47.444;21.396;2024-01-30T06:49:45;68.82;;;33.22;;
85204;SDS011;75582;47.444;21.396;2024-01-30T06:51:11;68.07;;;33.30;;
85204;SDS011;75582;47.444;21.396;2024-01-30T06:52:38;71.63;;;33.80;;
85204;SDS011;75582;47.444;21.396;2024-01-30T06:54:04;62.42;;;32.78;;
85204;SDS011;75582;47.444;21.396;2024-01-30T06:55:29;64.85;;;33.60;;
85204;SDS011;75582;47.444;21.396;2024-01-30T06:56:57;70.57;;;35.53;;
85204;SDS011;75582;47.444;21.396;2024-01-30T06:58:23;69.32;;;34.92;;
85204;SDS011;75582;47.444;21.396;2024-01-30T06:59:49;70.13;;;34.90;;
85204;SDS011;75582;47.444;21.396;2024-01-30T07:01:16;70.88;;;34.17;;
85204;SDS011;75582;47.444;21.396;2024-01-30T07:02:41;63.13;;;31.70;;
85204;SDS011;75582;47.444;21.396;2024-01-30T07:04:08;65.30;;;32.65;;
85204;SDS011;75582;47.444;21.396;2024-01-30T07:05:34;58.25;;;30.55;;
85204;SDS011;75582;47.444;21.396;2024-01-30T07:07:00;63.17;;;32.47;;
85204;SDS011;75582;47.444;21.396;2024-01-30T07:08:26;69.50;;;36.53;;
85204;SDS011;75582;47.444;21.396;2024-01-30T07:09:52;84.75;;;42.92;;
85204;SDS011;75582;47.444;21.396;2024-01-30T07:11:22;79.90;;;42.00;;
85204;SDS011;75582;47.444;21.396;2024-01-30T07:12:49;72.70;;;37.78;;
85204;SDS011;75582;47.444;21.396;2024-01-30T07:14:15;74.57;;;37.55;;
85204;SDS011;75582;47.444;21.396;2024-01-30T07:15:41;65.28;;;34.15;;
85204;SDS011;75582;47.444;21.396;2024-01-30T07:17:08;62.67;;;32.45;;
85204;SDS011;75582;47.444;21.396;2024-01-30T07:18:34;61.53;;;30.90;;
85204;SDS011;75582;47.444;21.396;2024-01-30T07:20:00;57.65;;;30.10;;
85204;SDS011;75582;47.444;21.396;2024-01-30T07:21:27;54.07;;;27.47;;
85204;SDS011;75582;47.444;21.396;2024-01-30T07:22:53;57.17;;;29.07;;
85204;SDS011;75582;47.444;21.396;2024-01-30T07:24:20;53.53;;;27.23;;
85204;SDS011;75582;47.444;21.396;2024-01-30T07:25:54;52.90;;;26.67;;
85204;SDS011;75582;47.444;21.396;2024-01-30T07:27:20;55.38;;;27.33;;
85204;SDS011;75582;47.444;21.396;2024-01-30T07:28:47;50.33;;;25.73;;
85204;SDS011;75582;47.444;21.396;2024-01-30T07:30:12;55.88;;;25.73;;
85204;SDS011;75582;47.444;21.396;2024-01-30T07:31:39;45.72;;;22.88;;
85204;SDS011;75582;47.444;21.396;2024-01-30T07:33:05;47.55;;;23.95;;
85204;SDS011;75582;47.444;21.396;2024-01-30T07:34:32;46.53;;;24.08;;
85204;SDS011;75582;47.444;21.396;2024-01-30T07:35:58;45.03;;;22.40;;
85204;SDS011;75582;47.444;21.396;2024-01-30T07:37:24;44.33;;;21.50;;
85204;SDS011;75582;47.444;21.396;2024-01-30T07:38:53;47.55;;;22.65;;
85204;SDS011;75582;47.444;21.396;2024-01-30T07:40:22;59.03;;;28.58;;
85204;SDS011;75582;47.444;21.396;2024-01-30T07:41:47;59.75;;;29.38;;
85204;SDS011;75582;47.444;21.396;2024-01-30T07:43:13;48.75;;;24.20;;
85204;SDS011;75582;47.444;21.396;2024-01-30T07:44:39;45.55;;;24.20;;
85204;SDS011;75582;47.444;21.396;2024-01-30T07:46:05;39.75;;;21.85;;
85204;SDS011;75582;47.444;21.396;2024-01-30T07:47:31;32.90;;;17.92;;
85204;SDS011;75582;47.444;21.396;2024-01-30T07:48:58;35.00;;;18.05;;
85204;SDS011;75582;47.444;21.396;2024-01-30T07:50:23;33.47;;;18.20;;
85204;SDS011;75582;47.444;21.396;2024-01-30T07:51:50;35.97;;;18.47;;
85204;SDS011;75582;47.444;21.396;2024-01-30T07:53:16;32.95;;;16.88;;
85204;SDS011;75582;47.444;21.396;2024-01-30T07:54:41;34.65;;;16.90;;
85204;SDS011;75582;47.444;21.396;2024-01-30T07:56:08;37.50;;;17.63;;
85204;SDS011;75582;47.444;21.396;2024-01-30T07:57:34;38.65;;;18.20;;
85204;SDS011;75582;47.444;21.396;2024-01-30T07:59:00;39.00;;;18.52;;
85204;SDS011;75582;47.444;21.396;2024-01-30T08:00:26;38.50;;;18.05;;
85204;SDS011;75582;47.444;21.396;2024-01-30T08:01:53;35.08;;;16.95;;
85204;SDS011;75582;47.444;21.396;2024-01-30T08:03:19;35.13;;;16.45;;
85204;SDS011;75582;47.444;21.396;2024-01-30T08:04:45;32.03;;;16.30;;
85204;SDS011;75582;47.444;21.396;2024-01-30T08:06:13;30.13;;;16.07;;
85204;SDS011;75582;47.444;21.396;2024-01-30T08:07:40;25.10;;;13.63;;
85204;SDS011;75582;47.444;21.396;2024-01-30T08:09:08;24.08;;;13.35;;
85204;SDS011;75582;47.444;21.396;2024-01-30T08:10:35;23.05;;;12.57;;
85204;SDS011;75582;47.444;21.396;2024-01-30T08:12:02;21.10;;;12.52;;
85204;SDS011;75582;47.444;21.396;2024-01-30T08:13:27;22.05;;;12.30;;
85204;SDS011;75582;47.444;21.396;2024-01-30T08:14:54;23.55;;;12.57;;
85204;SDS011;75582;47.444;21.396;2024-01-30T08:16:20;25.17;;;13.50;;
85204;SDS011;75582;47.444;21.396;2024-01-30T08:17:46;23.17;;;13.45;;
85204;SDS011;75582;47.444;21.396;2024-01-30T08:19:12;24.88;;;12.38;;
85204;SDS011;75582;47.444;21.396;2024-01-30T08:20:38;21.73;;;12.93;;